Terminal Aerodrome Forecast
Issued by NWS

Current Version | Previous Version | Text Only | Print | Product List | Glossary On
Versions: 1 2 3 4 5 6 7 8 9 10 11 12 13 14 15 16 17 18 19 20 21 22 23 24 25 26 27 28 29 30 31 32 33 34 35 36 37 38 39 40 41 42
000
FTAK31 PANC 161349 AAA
TAFACD
TAF AMD
PACD 161349Z 1614/1712 VRB05KT P6SM VCSH SCT025 BKN040
      TEMPO 1614/1618 BKN025
     FM162000 33010KT 5SM -SHSN SCT015 OVC025
     FM170400 33017G25KT 4SM -SHSN BKN015 OVC025=

USA.gov is the U.S. government's official web portal to all federal, state and local government web resources and services.